createdAt,value
2022-12-25T00:00:00.100Z,1009.0
2022-12-25T00:00:59.036Z,1009.0
2022-12-25T00:01:58.897Z,1009.1
2022-12-25T00:02:59.248Z,1009.0
2022-12-25T00:03:59.583Z,1009.0
2022-12-25T00:04:58.920Z,1009.0
2022-12-25T00:05:58.940Z,1008.9
2022-12-25T00:06:58.938Z,1008.9
2022-12-25T00:07:58.951Z,1008.9
2022-12-25T00:08:58.990Z,1008.9
2022-12-25T00:09:58.978Z,1009.0
2022-12-25T00:10:58.977Z,1009.0
2022-12-25T00:11:59.002Z,1009.0
2022-12-25T00:12:59.030Z,1008.9
2022-12-25T00:13:59.029Z,1009.0
2022-12-25T00:14:59.033Z,1008.9
2022-12-25T00:15:59.245Z,1008.9
2022-12-25T00:16:59.076Z,1008.9
2022-12-25T00:17:59.077Z,1008.9
2022-12-25T00:18:59.216Z,1008.9
2022-12-25T00:19:59.109Z,1008.9
2022-12-25T00:20:59.149Z,1009.0
2022-12-25T00:21:59.135Z,1008.9
2022-12-25T00:22:59.144Z,1008.9
2022-12-25T00:23:59.167Z,1009.0
2022-12-25T00:24:59.217Z,1009.0
2022-12-25T00:25:59.198Z,1009.1
2022-12-25T00:26:59.199Z,1009.1
2022-12-25T00:27:59.219Z,1009.1
2022-12-25T00:28:59.261Z,1009.1
2022-12-25T00:29:59.236Z,1009.0
2022-12-25T00:30:59.429Z,1009.2
2022-12-25T00:31:59.513Z,1009.2
2022-12-25T00:32:59.279Z,1009.1
2022-12-25T00:33:59.310Z,1009.1
2022-12-25T00:34:59.307Z,1009.3
2022-12-25T00:35:59.331Z,1009.2
2022-12-25T00:36:59.326Z,1009.2
2022-12-25T00:37:59.359Z,1009.2
2022-12-25T00:38:59.360Z,1009.3
2022-12-25T00:39:59.373Z,1009.2
2022-12-25T00:40:59.401Z,1009.3
2022-12-25T00:41:59.421Z,1009.3
2022-12-25T00:42:59.440Z,1009.3
2022-12-25T00:43:59.456Z,1009.2
2022-12-25T00:44:59.475Z,1009.3
2022-12-25T00:45:59.722Z,1009.2
2022-12-25T00:46:59.649Z,1009.2
2022-12-25T00:47:59.526Z,1009.2
2022-12-25T00:48:59.523Z,1009.2
2022-12-25T00:49:59.531Z,1009.2
2022-12-25T00:50:59.537Z,1009.3
2022-12-25T00:51:59.537Z,1009.3
2022-12-25T00:52:59.557Z,1009.2
2022-12-25T00:53:59.588Z,1009.2
2022-12-25T00:54:59.584Z,1009.3
2022-12-25T00:55:59.646Z,1009.2
2022-12-25T00:56:59.607Z,1009.3
2022-12-25T00:57:59.606Z,1009.3
2022-12-25T00:58:59.636Z,1009.3
2022-12-25T00:59:59.635Z,1009.3
2022-12-25T01:00:59.761Z,1009.2
2022-12-25T01:01:59.824Z,1009.3
2022-12-25T01:20:00.222Z,1009.2
2022-12-25T01:20:59.835Z,1009.2
2022-12-25T01:21:59.844Z,1009.2
2022-12-25T01:22:59.843Z,1009.2
2022-12-25T01:23:59.859Z,1009.2
2022-12-25T01:24:59.856Z,1009.2
2022-12-25T01:26:00.196Z,1009.1
2022-12-25T01:26:59.870Z,1009.1
2022-12-25T01:27:59.882Z,1009.2
2022-12-25T01:28:59.887Z,1009.1
2022-12-25T01:29:59.892Z,1009.2
2022-12-25T01:31:00.475Z,1009.2
2022-12-25T01:32:00.042Z,1009.3
2022-12-25T01:32:59.907Z,1009.3
2022-12-25T01:33:59.926Z,1009.3
2022-12-25T01:34:59.964Z,1009.3
2022-12-25T01:35:59.943Z,1009.3
2022-12-25T01:36:59.923Z,1009.3
2022-12-25T01:37:59.947Z,1009.3
2022-12-25T01:38:59.943Z,1009.3
2022-12-25T01:39:59.951Z,1009.4
2022-12-25T01:40:59.985Z,1009.4
2022-12-25T01:41:59.972Z,1009.4
2022-12-25T01:42:59.955Z,1009.4
2022-12-25T01:43:59.977Z,1009.4
2022-12-25T01:44:59.977Z,1009.4
2022-12-25T01:46:00.273Z,1009.4
2022-12-25T01:46:59.985Z,1009.4
2022-12-25T01:47:59.993Z,1009.4
2022-12-25T01:49:00.043Z,1009.5
2022-12-25T01:50:00.000Z,1009.4
2022-12-25T01:51:00.041Z,1009.5
2022-12-25T01:52:00.043Z,1009.6
2022-12-25T01:53:00.031Z,1009.6
2022-12-25T01:54:00.035Z,1009.6
2022-12-25T01:55:00.073Z,1009.6
2022-12-25T01:56:00.090Z,1009.6
2022-12-25T01:57:00.104Z,1009.6
2022-12-25T01:58:00.081Z,1009.6
2022-12-25T01:59:00.101Z,1009.6
2022-12-25T02:00:00.146Z,1009.6
2022-12-25T02:01:00.246Z,1009.6
2022-12-25T02:02:00.621Z,1009.6
2022-12-25T02:03:00.298Z,1009.6
2022-12-25T02:04:00.368Z,1009.6
2022-12-25T02:05:00.161Z,1009.6
2022-12-25T02:06:00.135Z,1009.6
2022-12-25T02:07:00.156Z,1009.7
2022-12-25T02:08:00.209Z,1009.7
2022-12-25T02:09:00.160Z,1009.7
2022-12-25T02:10:00.190Z,1009.7
2022-12-25T02:11:00.193Z,1009.7
2022-12-25T02:12:00.587Z,1009.8
2022-12-25T02:13:00.203Z,1009.7
2022-12-25T02:14:00.190Z,1009.8
2022-12-25T02:15:06.545Z,1009.8
2022-12-25T02:16:00.205Z,1009.7
2022-12-25T02:17:00.287Z,1009.7
2022-12-25T02:18:00.239Z,1009.7
2022-12-25T02:19:00.203Z,1009.7
2022-12-25T02:20:00.256Z,1009.8
2022-12-25T02:21:00.218Z,1009.8
2022-12-25T02:22:00.208Z,1009.8
2022-12-25T02:23:00.225Z,1009.8
2022-12-25T02:24:00.221Z,1009.8
2022-12-25T02:25:00.266Z,1009.8
2022-12-25T02:26:00.270Z,1009.8
2022-12-25T02:27:00.293Z,1009.9
2022-12-25T02:28:00.256Z,1009.8
2022-12-25T02:29:00.255Z,1009.8
2022-12-25T02:30:00.266Z,1009.8
2022-12-25T02:31:00.286Z,1009.8
2022-12-25T02:32:00.525Z,1009.7
2022-12-25T02:33:00.414Z,1009.7
2022-12-25T02:34:00.437Z,1009.8
2022-12-25T02:35:00.407Z,1009.8
2022-12-25T02:36:00.304Z,1009.8
2022-12-25T02:37:00.299Z,1009.7
2022-12-25T02:38:00.317Z,1009.7
2022-12-25T02:39:00.323Z,1009.8
2022-12-25T02:40:00.408Z,1009.9
2022-12-25T02:41:00.322Z,1009.9
2022-12-25T02:42:00.346Z,1009.8
2022-12-25T02:43:00.357Z,1009.8
2022-12-25T02:44:00.404Z,1009.9
2022-12-25T02:45:00.385Z,1009.8
2022-12-25T02:46:00.509Z,1009.9
2022-12-25T02:47:00.387Z,1010.0
2022-12-25T02:48:00.382Z,1009.9
2022-12-25T02:49:00.379Z,1010.0
2022-12-25T02:50:00.399Z,1010.0
2022-12-25T02:51:00.397Z,1009.9
2022-12-25T02:52:00.422Z,1009.8
2022-12-25T02:53:00.414Z,1009.8
2022-12-25T02:54:00.423Z,1009.9
2022-12-25T02:55:00.454Z,1009.9
2022-12-25T02:56:00.491Z,1010.0
2022-12-25T02:57:00.447Z,1009.9
2022-12-25T02:58:00.448Z,1009.9
2022-12-25T02:59:00.510Z,1009.8
2022-12-25T03:00:00.449Z,1009.8
2022-12-25T03:01:00.621Z,1009.8
2022-12-25T03:02:00.840Z,1009.9
2022-12-25T03:03:00.600Z,1009.8
2022-12-25T03:04:00.541Z,1009.9
2022-12-25T03:05:00.492Z,1009.8
2022-12-25T03:06:00.515Z,1009.9
2022-12-25T03:07:00.508Z,1009.8
2022-12-25T03:08:00.517Z,1009.9
2022-12-25T03:09:00.524Z,1009.9
2022-12-25T03:10:00.528Z,1009.9
2022-12-25T03:11:00.530Z,1009.9
2022-12-25T03:12:00.559Z,1009.9
2022-12-25T03:13:00.546Z,1009.9
2022-12-25T03:14:00.548Z,1009.9
2022-12-25T03:15:00.563Z,1009.9
2022-12-25T03:16:00.571Z,1009.8
2022-12-25T03:17:00.743Z,1009.8
2022-12-25T03:18:00.587Z,1009.8
2022-12-25T03:19:00.595Z,1009.8
2022-12-25T03:20:00.595Z,1009.8
2022-12-25T03:21:00.622Z,1009.8
2022-12-25T03:22:00.606Z,1009.9
2022-12-25T03:23:00.628Z,1009.8
2022-12-25T03:24:00.670Z,1009.8
2022-12-25T03:25:00.644Z,1009.7
2022-12-25T03:26:00.653Z,1009.7
2022-12-25T03:27:00.666Z,1009.7
2022-12-25T03:28:00.679Z,1009.5
2022-12-25T03:29:00.683Z,1009.7
2022-12-25T03:30:00.734Z,1009.6
2022-12-25T03:31:00.942Z,1009.7
2022-12-25T03:32:00.704Z,1009.7
2022-12-25T03:33:23.548Z,1009.7
2022-12-25T03:34:00.701Z,1009.6
2022-12-25T03:35:00.718Z,1009.6
2022-12-25T03:36:00.718Z,1009.7
2022-12-25T03:37:00.724Z,1009.6
2022-12-25T03:38:00.740Z,1009.7
2022-12-25T03:39:00.746Z,1009.6
2022-12-25T03:40:00.784Z,1009.5
2022-12-25T03:41:00.790Z,1009.6
2022-12-25T03:42:00.801Z,1009.6
2022-12-25T03:43:00.803Z,1009.6
2022-12-25T03:44:00.793Z,1009.6
2022-12-25T03:45:00.875Z,1009.6
2022-12-25T03:46:00.842Z,1009.7
2022-12-25T03:47:00.822Z,1009.6
2022-12-25T03:48:00.856Z,1009.7
2022-12-25T03:49:00.820Z,1009.6
2022-12-25T03:50:00.869Z,1009.6
2022-12-25T03:51:00.834Z,1009.7
2022-12-25T03:52:00.848Z,1009.7
2022-12-25T03:53:00.832Z,1009.8
2022-12-25T03:54:00.829Z,1009.9
2022-12-25T03:55:00.877Z,1009.9
2022-12-25T03:56:00.870Z,1009.8
2022-12-25T03:57:00.861Z,1009.8
2022-12-25T03:58:00.865Z,1009.8
2022-12-25T03:59:00.859Z,1009.8
2022-12-25T04:00:00.901Z,1009.7
2022-12-25T04:01:01.064Z,1009.8
2022-12-25T04:02:01.153Z,1009.8
2022-12-25T04:03:01.086Z,1009.8
2022-12-25T04:04:00.911Z,1009.7
2022-12-25T04:05:00.891Z,1009.7
2022-12-25T04:06:00.911Z,1009.7
2022-12-25T04:07:00.910Z,1009.6
2022-12-25T04:08:00.920Z,1009.6
2022-12-25T04:09:00.955Z,1009.6
2022-12-25T04:10:00.938Z,1009.5
2022-12-25T04:11:00.933Z,1009.5
2022-12-25T04:12:03.442Z,1009.5
2022-12-25T04:13:00.954Z,1009.6
2022-12-25T04:14:00.964Z,1009.5
2022-12-25T04:15:00.976Z,1009.5
2022-12-25T04:16:01.241Z,1009.5
2022-12-25T04:17:00.979Z,1009.5
2022-12-25T04:18:00.999Z,1009.5
2022-12-25T04:19:00.994Z,1009.5
2022-12-25T04:20:01.005Z,1009.5
2022-12-25T04:21:01.019Z,1009.4
2022-12-25T04:22:01.043Z,1009.4
2022-12-25T04:23:01.016Z,1009.3
2022-12-25T04:24:01.016Z,1009.2
2022-12-25T04:25:01.038Z,1009.2
2022-12-25T04:26:01.052Z,1009.2
2022-12-25T04:27:01.078Z,1009.1
2022-12-25T04:28:01.078Z,1009.2
2022-12-25T04:29:01.064Z,1009.2
2022-12-25T04:30:01.072Z,1009.2
2022-12-25T04:31:01.162Z,1009.2
2022-12-25T04:32:01.078Z,1009.1
2022-12-25T04:33:01.082Z,1009.1
2022-12-25T04:34:01.088Z,1009.2
2022-12-25T04:35:01.093Z,1009.2
2022-12-25T04:36:01.096Z,1009.2
2022-12-25T04:37:01.122Z,1009.2
2022-12-25T04:38:01.116Z,1009.2
2022-12-25T04:39:01.122Z,1009.2
2022-12-25T04:40:01.138Z,1009.2
2022-12-25T04:41:01.129Z,1009.2
2022-12-25T04:42:01.271Z,1009.3
2022-12-25T04:43:01.166Z,1009.3
2022-12-25T04:44:01.158Z,1009.4
2022-12-25T04:45:01.181Z,1009.4
2022-12-25T04:46:01.328Z,1009.4
2022-12-25T04:47:10.853Z,1009.4
2022-12-25T04:48:01.227Z,1009.4
2022-12-25T04:49:01.232Z,1009.3
2022-12-25T04:50:01.209Z,1009.3
2022-12-25T04:51:01.215Z,1009.4
2022-12-25T04:52:01.226Z,1009.3
2022-12-25T04:53:01.251Z,1009.2
2022-12-25T04:54:01.271Z,1009.2
2022-12-25T04:55:01.247Z,1009.2
2022-12-25T04:56:01.256Z,1009.2
2022-12-25T04:57:01.258Z,1009.2
2022-12-25T04:58:01.360Z,1009.1
2022-12-25T04:59:01.278Z,1009.2
2022-12-25T05:00:01.357Z,1009.1
2022-12-25T05:01:01.305Z,1009.1
2022-12-25T05:02:01.568Z,1009.0
2022-12-25T05:03:01.684Z,1009.0
2022-12-25T05:04:01.330Z,1009.0
2022-12-25T05:05:01.481Z,1009.1
2022-12-25T05:06:01.373Z,1009.1
2022-12-25T05:07:01.354Z,1009.2
2022-12-25T05:08:01.371Z,1009.1
2022-12-25T05:09:01.375Z,1009.1
2022-12-25T05:10:01.392Z,1009.2
2022-12-25T05:11:01.390Z,1009.1
2022-12-25T05:12:01.399Z,1009.1
2022-12-25T05:13:01.448Z,1009.0
2022-12-25T05:14:01.608Z,1009.0
2022-12-25T05:15:01.418Z,1009.1
2022-12-25T05:16:01.601Z,1009.1
2022-12-25T05:17:01.450Z,1009.0
2022-12-25T05:18:01.449Z,1009.0
2022-12-25T05:19:01.454Z,1009.0
2022-12-25T05:20:01.465Z,1009.0
2022-12-25T05:21:01.485Z,1008.9
2022-12-25T05:22:01.484Z,1008.9
2022-12-25T05:23:01.487Z,1009.0
2022-12-25T05:24:01.515Z,1009.0
2022-12-25T05:25:01.523Z,1009.0
2022-12-25T05:26:01.512Z,1009.1
2022-12-25T05:27:01.531Z,1009.0
2022-12-25T05:28:01.535Z,1009.0
2022-12-25T05:29:01.540Z,1009.0
2022-12-25T05:30:01.562Z,1009.0
2022-12-25T05:31:01.620Z,1009.0
2022-12-25T05:32:01.556Z,1009.1
2022-12-25T05:33:01.574Z,1008.8
2022-12-25T05:34:01.594Z,1008.9
2022-12-25T05:35:01.602Z,1008.8
2022-12-25T05:36:01.578Z,1008.8
2022-12-25T05:37:01.596Z,1008.8
2022-12-25T05:38:01.589Z,1008.7
2022-12-25T05:39:01.612Z,1008.8
2022-12-25T05:40:01.636Z,1008.8
2022-12-25T05:41:01.625Z,1008.8
2022-12-25T05:42:01.639Z,1008.7
2022-12-25T05:43:01.654Z,1008.7
2022-12-25T05:44:01.635Z,1008.7
2022-12-25T05:45:01.650Z,1008.8
2022-12-25T05:46:01.645Z,1008.8
2022-12-25T05:47:01.880Z,1008.8
2022-12-25T05:48:01.678Z,1008.8
2022-12-25T05:49:01.671Z,1008.8
2022-12-25T05:50:01.667Z,1008.8
2022-12-25T05:51:01.673Z,1008.8
2022-12-25T05:52:01.690Z,1008.8
2022-12-25T05:53:08.870Z,1008.8
2022-12-25T05:54:01.755Z,1008.8
2022-12-25T05:55:01.701Z,1008.8
2022-12-25T05:56:01.724Z,1008.8
2022-12-25T05:57:01.747Z,1008.7
2022-12-25T05:58:01.732Z,1008.8
2022-12-25T05:59:01.742Z,1008.9
2022-12-25T06:00:01.807Z,1008.9
2022-12-25T06:01:01.788Z,1008.9
2022-12-25T06:02:02.155Z,1008.9
2022-12-25T06:03:02.189Z,1008.9
2022-12-25T06:04:10.298Z,1008.9
2022-12-25T06:05:01.804Z,1008.8
2022-12-25T06:06:01.793Z,1008.9
2022-12-25T06:07:01.811Z,1008.9
2022-12-25T06:08:01.802Z,1008.9
2022-12-25T06:09:01.813Z,1008.8
2022-12-25T06:10:01.814Z,1008.8
2022-12-25T06:11:01.825Z,1008.9
2022-12-25T06:12:01.852Z,1008.8
2022-12-25T06:13:01.836Z,1008.8
2022-12-25T06:14:01.941Z,1008.8
2022-12-25T06:15:01.852Z,1008.8
2022-12-25T06:16:01.969Z,1008.8
2022-12-25T06:17:02.069Z,1008.8
2022-12-25T06:18:01.870Z,1008.8
2022-12-25T06:19:01.900Z,1008.9
2022-12-25T06:20:01.887Z,1008.9
2022-12-25T06:21:01.892Z,1008.8
2022-12-25T06:22:02.029Z,1008.8
2022-12-25T06:23:01.904Z,1008.9
2022-12-25T06:24:02.149Z,1008.9
2022-12-25T06:25:01.938Z,1008.9
2022-12-25T06:26:01.928Z,1008.8
2022-12-25T06:27:01.925Z,1008.9
2022-12-25T06:28:01.928Z,1008.9
2022-12-25T06:29:01.938Z,1008.9
2022-12-25T06:30:02.000Z,1008.9
2022-12-25T06:31:01.945Z,1008.9
2022-12-25T06:32:02.081Z,1008.9
2022-12-25T06:33:01.967Z,1008.9
2022-12-25T06:34:01.971Z,1008.9
2022-12-25T06:35:02.015Z,1008.8
2022-12-25T06:36:01.990Z,1008.8
2022-12-25T06:37:01.995Z,1008.8
2022-12-25T06:38:02.120Z,1008.8
2022-12-25T06:39:02.033Z,1008.8
2022-12-25T06:40:02.042Z,1008.9
2022-12-25T06:41:02.025Z,1008.8
2022-12-25T06:42:02.067Z,1008.8
2022-12-25T06:43:02.054Z,1008.8
2022-12-25T06:44:02.121Z,1008.8
2022-12-25T06:45:02.089Z,1008.8
2022-12-25T06:46:02.206Z,1008.8
2022-12-25T06:47:02.084Z,1008.8
2022-12-25T06:48:02.081Z,1008.9
2022-12-25T06:49:02.084Z,1008.8
2022-12-25T06:50:02.102Z,1008.8
2022-12-25T06:51:02.089Z,1008.9
2022-12-25T06:52:02.106Z,1008.9
2022-12-25T06:53:02.114Z,1008.9
2022-12-25T06:54:02.122Z,1008.9
2022-12-25T06:55:02.234Z,1008.9
2022-12-25T06:56:02.145Z,1008.9
2022-12-25T06:57:02.143Z,1008.9
2022-12-25T06:58:02.144Z,1008.9
2022-12-25T06:59:02.156Z,1008.9
2022-12-25T07:00:02.277Z,1008.9
2022-12-25T07:01:02.276Z,1008.9
2022-12-25T07:02:02.496Z,1008.9
2022-12-25T07:03:02.634Z,1008.9
2022-12-25T07:04:02.200Z,1008.9
2022-12-25T07:05:02.277Z,1008.9
2022-12-25T07:06:02.205Z,1008.9
2022-12-25T07:07:09.530Z,1009.0
2022-12-25T07:08:02.210Z,1009.0
2022-12-25T07:09:02.215Z,1008.9
2022-12-25T07:10:02.222Z,1009.0
2022-12-25T07:11:02.227Z,1008.9
2022-12-25T07:12:02.226Z,1009.0
2022-12-25T07:13:02.262Z,1009.0
2022-12-25T07:14:02.244Z,1009.0
2022-12-25T07:15:02.259Z,1009.0
2022-12-25T07:16:02.372Z,1009.0
2022-12-25T07:17:02.415Z,1009.1
2022-12-25T07:18:02.267Z,1009.0
2022-12-25T07:19:02.276Z,1009.1
2022-12-25T07:20:02.293Z,1009.0
2022-12-25T07:21:02.295Z,1009.0
2022-12-25T07:22:02.305Z,1009.1
2022-12-25T07:23:02.305Z,1009.1
2022-12-25T07:24:02.327Z,1009.1
2022-12-25T07:25:02.321Z,1009.1
2022-12-25T07:26:02.329Z,1009.1
2022-12-25T07:27:02.328Z,1009.1
2022-12-25T07:28:02.335Z,1009.1
2022-12-25T07:29:02.345Z,1009.1
2022-12-25T07:30:02.375Z,1009.1
2022-12-25T07:31:02.368Z,1009.1
2022-12-25T07:32:02.548Z,1009.0
2022-12-25T07:33:02.379Z,1009.1
2022-12-25T07:34:02.382Z,1009.0
2022-12-25T07:35:02.409Z,1009.1
2022-12-25T07:36:02.404Z,1009.1
2022-12-25T07:37:02.433Z,1009.1
2022-12-25T07:38:02.421Z,1009.0
2022-12-25T07:39:02.431Z,1009.1
2022-12-25T07:40:02.434Z,1009.1
2022-12-25T07:41:02.436Z,1009.0
2022-12-25T07:42:02.462Z,1009.1
2022-12-25T07:43:02.454Z,1009.1
2022-12-25T07:44:02.458Z,1009.1
2022-12-25T07:45:02.460Z,1009.0
2022-12-25T07:46:02.658Z,1009.0
2022-12-25T07:47:02.481Z,1009.0
2022-12-25T07:48:08.397Z,1009.0
2022-12-25T07:49:02.494Z,1009.0
2022-12-25T07:50:02.501Z,1009.0
2022-12-25T07:51:02.502Z,1009.1
2022-12-25T07:52:02.518Z,1009.0
2022-12-25T07:53:02.526Z,1009.0
2022-12-25T07:54:02.543Z,1009.0
2022-12-25T07:55:02.542Z,1009.0
2022-12-25T07:56:02.551Z,1009.1
2022-12-25T07:57:02.553Z,1009.0
2022-12-25T07:58:02.568Z,1009.1
2022-12-25T07:59:02.605Z,1009.0
2022-12-25T08:00:02.582Z,1009.1
2022-12-25T08:01:02.760Z,1008.9
2022-12-25T08:02:03.257Z,1009.0
2022-12-25T08:03:03.166Z,1009.0
2022-12-25T08:04:02.732Z,1009.0
2022-12-25T08:05:02.606Z,1009.0
2022-12-25T08:06:02.611Z,1009.0
2022-12-25T08:07:02.626Z,1008.9
2022-12-25T08:08:02.625Z,1008.9
2022-12-25T08:09:02.643Z,1009.0
2022-12-25T08:10:02.641Z,1008.9
2022-12-25T08:11:02.655Z,1008.9
2022-12-25T08:12:02.664Z,1009.0
2022-12-25T08:13:02.867Z,1008.9
2022-12-25T08:14:02.693Z,1008.9
2022-12-25T08:15:02.716Z,1008.9
2022-12-25T08:16:02.752Z,1008.8
2022-12-25T08:17:02.890Z,1008.9
2022-12-25T08:18:02.729Z,1008.8
2022-12-25T08:19:02.736Z,1008.8
2022-12-25T08:20:02.751Z,1008.7
2022-12-25T08:21:02.754Z,1008.6
2022-12-25T08:22:02.744Z,1008.7
2022-12-25T08:23:02.741Z,1008.7
2022-12-25T08:24:02.792Z,1008.7
2022-12-25T08:25:02.795Z,1008.6
2022-12-25T08:26:05.961Z,1008.7
2022-12-25T08:27:02.780Z,1008.6
2022-12-25T08:28:02.808Z,1008.6
2022-12-25T08:29:02.829Z,1008.6
2022-12-25T08:30:02.816Z,1008.6
2022-12-25T08:31:02.911Z,1008.6
2022-12-25T08:32:02.822Z,1008.5
2022-12-25T08:33:02.821Z,1008.6
2022-12-25T08:34:02.864Z,1008.6
2022-12-25T08:35:02.846Z,1008.6
2022-12-25T08:36:02.844Z,1008.6
2022-12-25T08:37:02.857Z,1008.5
2022-12-25T08:38:02.875Z,1008.5
2022-12-25T08:39:03.730Z,1008.7
2022-12-25T08:40:02.870Z,1008.7
2022-12-25T08:41:02.928Z,1008.8
2022-12-25T08:42:02.883Z,1008.8
2022-12-25T08:43:02.887Z,1008.8
2022-12-25T08:44:02.889Z,1008.8
2022-12-25T08:45:02.926Z,1008.8
2022-12-25T08:46:03.051Z,1008.8
2022-12-25T08:47:02.912Z,1008.8
2022-12-25T08:48:02.926Z,1008.8
2022-12-25T08:49:02.941Z,1008.8
2022-12-25T08:50:03.072Z,1008.9
2022-12-25T08:51:02.964Z,1008.8
2022-12-25T08:52:02.993Z,1008.7
2022-12-25T08:53:02.996Z,1008.7
2022-12-25T08:54:02.970Z,1008.7
2022-12-25T08:55:02.997Z,1008.7
2022-12-25T08:56:02.982Z,1008.7
2022-12-25T08:57:03.340Z,1008.8
2022-12-25T08:58:02.991Z,1008.8
2022-12-25T08:59:03.001Z,1008.8
2022-12-25T09:00:03.025Z,1008.9
2022-12-25T09:01:03.147Z,1008.9
2022-12-25T09:02:03.390Z,1008.9
2022-12-25T09:03:03.288Z,1008.9
2022-12-25T09:04:03.054Z,1009.0
2022-12-25T09:05:03.083Z,1008.9
2022-12-25T09:06:03.072Z,1009.0
2022-12-25T09:07:03.072Z,1009.0
2022-12-25T09:08:03.085Z,1009.0
2022-12-25T09:09:03.115Z,1009.1
2022-12-25T09:10:03.126Z,1009.0
2022-12-25T09:11:03.110Z,1009.0
2022-12-25T09:12:03.112Z,1008.9
2022-12-25T09:13:03.132Z,1009.0
2022-12-25T09:14:03.149Z,1008.9
2022-12-25T09:15:03.150Z,1009.0
2022-12-25T09:16:03.220Z,1009.0
2022-12-25T09:17:03.168Z,1008.9
2022-12-25T09:18:03.154Z,1008.9
2022-12-25T09:19:03.168Z,1008.9
2022-12-25T09:20:03.175Z,1008.9
2022-12-25T09:21:03.189Z,1008.8
2022-12-25T09:22:03.188Z,1008.9
2022-12-25T09:23:13.435Z,1008.9
2022-12-25T09:24:03.206Z,1008.9
2022-12-25T09:25:03.213Z,1008.9
2022-12-25T09:26:03.227Z,1008.8
2022-12-25T09:27:03.229Z,1008.8
2022-12-25T09:28:03.236Z,1008.8
2022-12-25T09:29:03.246Z,1008.8
2022-12-25T09:30:03.250Z,1008.8
2022-12-25T09:31:03.340Z,1008.8
2022-12-25T09:32:03.252Z,1008.8
2022-12-25T09:33:03.275Z,1008.8
2022-12-25T09:34:03.279Z,1008.9
2022-12-25T09:35:03.317Z,1008.9
2022-12-25T09:36:03.311Z,1008.9
2022-12-25T09:37:03.303Z,1008.9
2022-12-25T09:38:03.330Z,1009.0
2022-12-25T09:39:03.308Z,1008.9
2022-12-25T09:40:03.338Z,1009.0
2022-12-25T09:41:03.353Z,1009.0
2022-12-25T09:42:03.344Z,1008.9
2022-12-25T09:43:03.352Z,1009.0
2022-12-25T09:44:03.377Z,1008.9
2022-12-25T09:45:03.394Z,1008.8
2022-12-25T09:46:03.536Z,1008.9
2022-12-25T09:47:03.411Z,1008.9
2022-12-25T09:48:03.403Z,1008.8
2022-12-25T09:49:03.411Z,1008.8
2022-12-25T09:50:03.415Z,1008.8
2022-12-25T09:51:03.424Z,1008.9
2022-12-25T09:52:03.452Z,1008.9
2022-12-25T09:53:03.456Z,1008.8
2022-12-25T09:54:03.456Z,1008.9
2022-12-25T09:55:03.470Z,1009.0
2022-12-25T09:56:03.477Z,1008.9
2022-12-25T09:57:03.470Z,1008.9
2022-12-25T09:58:03.487Z,1009.0
2022-12-25T09:59:03.504Z,1008.9
2022-12-25T10:00:03.509Z,1009.0
2022-12-25T10:01:03.506Z,1008.9
2022-12-25T10:02:03.772Z,1008.9
2022-12-25T10:03:03.924Z,1008.9
2022-12-25T10:04:03.528Z,1008.9
2022-12-25T10:05:03.545Z,1008.9
2022-12-25T10:06:03.548Z,1008.8
2022-12-25T10:07:03.548Z,1008.9
2022-12-25T10:08:03.558Z,1008.9
2022-12-25T10:09:03.575Z,1008.9
2022-12-25T10:10:03.578Z,1008.8
2022-12-25T10:11:03.600Z,1008.9
2022-12-25T10:12:03.582Z,1008.9
2022-12-25T10:13:03.597Z,1008.9
2022-12-25T10:14:03.598Z,1008.9
2022-12-25T10:15:03.629Z,1008.8
2022-12-25T10:16:03.721Z,1008.8
2022-12-25T10:17:03.640Z,1008.8
2022-12-25T10:18:03.633Z,1008.9
2022-12-25T10:19:03.654Z,1008.8
2022-12-25T10:20:03.651Z,1008.8
2022-12-25T10:21:12.755Z,1008.8
2022-12-25T10:22:03.680Z,1008.8
2022-12-25T10:23:03.675Z,1008.9
2022-12-25T10:24:03.693Z,1008.9
2022-12-25T10:25:03.714Z,1008.9
2022-12-25T10:26:03.731Z,1008.8
2022-12-25T10:27:03.704Z,1008.8
2022-12-25T10:28:03.710Z,1008.8
2022-12-25T10:29:03.719Z,1008.7
2022-12-25T10:30:03.731Z,1008.7
2022-12-25T10:31:03.843Z,1008.6
2022-12-25T10:32:03.743Z,1008.6
2022-12-25T10:33:03.781Z,1008.6
2022-12-25T10:34:03.785Z,1008.6
2022-12-25T10:35:03.767Z,1008.5
2022-12-25T10:36:03.807Z,1008.6
2022-12-25T10:37:03.790Z,1008.6
2022-12-25T10:38:03.797Z,1008.5
2022-12-25T10:39:03.804Z,1008.5
2022-12-25T10:40:03.813Z,1008.5
2022-12-25T10:41:03.825Z,1008.4
2022-12-25T10:42:03.857Z,1008.4
2022-12-25T10:43:03.841Z,1008.4
2022-12-25T10:44:03.846Z,1008.3
2022-12-25T10:45:03.878Z,1008.4
2022-12-25T10:46:03.951Z,1008.2
2022-12-25T10:47:03.906Z,1008.3
2022-12-25T10:48:08.125Z,1008.2
2022-12-25T10:49:03.890Z,1008.2
2022-12-25T10:50:03.915Z,1008.2
2022-12-25T10:51:03.901Z,1008.3
2022-12-25T10:52:04.022Z,1008.2
2022-12-25T10:53:03.919Z,1008.3
2022-12-25T10:54:03.955Z,1008.2
2022-12-25T10:55:03.937Z,1008.2
2022-12-25T10:56:03.953Z,1008.0
2022-12-25T10:57:03.979Z,1008.1
2022-12-25T10:58:03.968Z,1008.0
2022-12-25T10:59:03.970Z,1008.2
2022-12-25T11:00:03.973Z,1008.1
2022-12-25T11:01:03.992Z,1008.2
2022-12-25T11:02:04.365Z,1008.1
2022-12-25T11:03:04.242Z,1008.0
2022-12-25T11:04:04.185Z,1008.1
2022-12-25T11:05:04.016Z,1008.1
2022-12-25T11:06:04.021Z,1008.1
2022-12-25T11:07:04.025Z,1008.1
2022-12-25T11:08:04.033Z,1008.0
2022-12-25T11:09:04.070Z,1008.1
2022-12-25T11:10:06.207Z,1008.0
2022-12-25T11:11:04.059Z,1008.0
2022-12-25T11:12:04.067Z,1008.0
2022-12-25T11:13:04.106Z,1007.9
2022-12-25T11:14:04.092Z,1007.9
2022-12-25T11:15:04.105Z,1007.9
2022-12-25T11:16:04.227Z,1007.9
2022-12-25T11:17:04.120Z,1007.8
2022-12-25T11:18:04.128Z,1007.7
2022-12-25T11:19:04.162Z,1007.7
2022-12-25T11:20:04.137Z,1007.7
2022-12-25T11:21:04.151Z,1007.7
2022-12-25T11:22:04.204Z,1007.7
2022-12-25T11:23:04.176Z,1007.7
2022-12-25T11:24:04.183Z,1007.8
2022-12-25T11:25:04.187Z,1007.7
2022-12-25T11:26:04.242Z,1007.7
2022-12-25T11:27:04.207Z,1007.7
2022-12-25T11:28:04.242Z,1007.7
2022-12-25T11:29:04.219Z,1007.8
2022-12-25T11:30:04.235Z,1007.7
2022-12-25T11:31:04.325Z,1007.8
2022-12-25T11:32:04.268Z,1007.7
2022-12-25T11:33:04.244Z,1007.6
2022-12-25T11:34:04.281Z,1007.6
2022-12-25T11:35:04.262Z,1007.6
2022-12-25T11:36:04.274Z,1007.7
2022-12-25T11:37:04.290Z,1007.7
2022-12-25T11:38:04.319Z,1007.8
2022-12-25T11:39:04.318Z,1007.8
2022-12-25T11:40:04.333Z,1007.7
2022-12-25T11:41:04.337Z,1007.6
2022-12-25T11:42:04.331Z,1007.7
2022-12-25T11:43:08.541Z,1007.6
2022-12-25T11:44:04.340Z,1007.6
2022-12-25T11:45:04.369Z,1007.6
2022-12-25T11:46:04.369Z,1007.6
2022-12-25T11:47:04.478Z,1007.6
2022-12-25T11:48:04.373Z,1007.6
2022-12-25T11:49:04.388Z,1007.6
2022-12-25T11:50:04.402Z,1007.5
2022-12-25T11:51:04.430Z,1007.5
2022-12-25T11:52:04.414Z,1007.5
2022-12-25T11:53:04.419Z,1007.6
2022-12-25T11:54:04.425Z,1007.5
2022-12-25T11:55:04.435Z,1007.5
2022-12-25T11:56:04.448Z,1007.5
2022-12-25T11:57:04.536Z,1007.5
2022-12-25T11:58:04.472Z,1007.4
2022-12-25T11:59:04.468Z,1007.4
2022-12-25T12:00:04.476Z,1007.5
2022-12-25T12:01:04.495Z,1007.5
2022-12-25T12:02:04.733Z,1007.5
2022-12-25T12:03:04.734Z,1007.5
2022-12-25T12:04:04.573Z,1007.6
2022-12-25T12:05:04.508Z,1007.7
2022-12-25T12:06:04.520Z,1007.6
2022-12-25T12:07:04.536Z,1007.6
2022-12-25T12:08:04.548Z,1007.6
2022-12-25T12:09:04.554Z,1007.6
2022-12-25T12:10:04.579Z,1007.6
2022-12-25T12:11:04.586Z,1007.6
2022-12-25T12:12:04.593Z,1007.5
2022-12-25T12:13:04.620Z,1007.6
2022-12-25T12:14:04.608Z,1007.5
2022-12-25T12:15:04.610Z,1007.6
2022-12-25T12:16:04.713Z,1007.6
2022-12-25T12:17:04.633Z,1007.5
2022-12-25T12:18:04.685Z,1007.5
2022-12-25T12:19:04.696Z,1007.5
2022-12-25T12:20:04.823Z,1007.5
2022-12-25T12:21:04.692Z,1007.5
2022-12-25T12:22:04.677Z,1007.5
2022-12-25T12:23:04.723Z,1007.6
2022-12-25T12:24:04.699Z,1007.5
2022-12-25T12:25:04.725Z,1007.6
2022-12-25T12:26:04.709Z,1007.7
2022-12-25T12:27:04.732Z,1007.7
2022-12-25T12:28:06.075Z,1007.6
2022-12-25T12:29:04.752Z,1007.7
2022-12-25T12:30:04.758Z,1007.6
2022-12-25T12:31:04.766Z,1007.6
2022-12-25T12:32:04.963Z,1007.5
2022-12-25T12:33:04.789Z,1007.6
2022-12-25T12:34:04.791Z,1007.5
2022-12-25T12:35:04.803Z,1007.5
2022-12-25T12:36:04.840Z,1007.5
2022-12-25T12:37:04.837Z,1007.5
2022-12-25T12:38:04.829Z,1007.4
2022-12-25T12:39:04.850Z,1007.4
2022-12-25T12:40:04.853Z,1007.4
2022-12-25T12:41:04.860Z,1007.3
2022-12-25T12:42:04.883Z,1007.3
2022-12-25T12:43:04.947Z,1007.2
2022-12-25T12:44:04.878Z,1007.4
2022-12-25T12:45:04.902Z,1007.2